Logo AVAMET
Benvolgut visitant, si us plau, ingressa Recuperar contrasenya
AVAMET paisatges

Borriana Platja del Grau

Dades diàries. Acumulats / Últims 30 dies disponibles

Data Temperatura (°C) Humitat rel. (%) Pressió rel. (hPa) Vent (km/h) Precipitació
Mínima Mitjana Màxima Amplitud
tèrmica
Mínima Mitjana Màxima Mínima Mitjana Màxima Predom. Mitjana Ràfega
màxima
Total
(mm)
Índex-n
Mínima Mitjana Màxima Mínima Mitjana Màxima n
0 a 1
P0 max
mm 5'
Dades mensuals acumulades fins l'últim dia disponible
09/2020 17,7 19,2 21,4 22,8 23,4 25,4 26,4 8,7 54 77 88 1.015 1.021 1.028   5,8 51,8 0,2
Dades anuals acumulades fins l'últim dia disponible
2020 3,6 14,3 24,9 17,7 10,9 20,6 30,4 26,8 28 79 98 999 1.021 1.038   11,2 96,5 339,8
Últims 30 dies disponibles
07-09-2020 21,4     22,1     23,4 2,0 54 70 88 1.018 1.019 1.022 SO 7,4 51,8 0,0
06-09-2020 19,8     23,6     25,8 6,0 72 80 88 1.018 1.019 1.021 S 3,5 31,5 0,0
05-09-2020 19,0     23,1     25,7 6,7 68 80 87 1.021 1.023 1.025 SSO 3,6 37,0 0,0
04-09-2020 18,7     23,1     26,4 7,7 70 79 85 1.025 1.026 1.028 SSO 5,9 37,0 0,0
03-09-2020 19,4     23,3     26,2 6,8 70 78 88 1.022 1.024 1.027 SSO 7,6 33,8 0,0
02-09-2020 17,7     22,2     25,2 7,5 57 77 87 1.016 1.019 1.022 S 7,5 33,8 0,0
01-09-2020 18,3     22,0     24,8 6,5 60 75 88 1.015 1.017 1.020 SO 5,2 37,0 0,2
31-08-2020 17,2     21,5     24,5 7,3 47 62 76 1.019 1.020 1.022 S 10,5 40,7 0,0
30-08-2020 15,7     20,5     24,0 8,3 40 62 81 1.012 1.015 1.020 SO 5,0 42,6 0,0
29-08-2020 18,2     21,4     25,1 6,9 54 74 88 1.006 1.008 1.012 SO 6,6 53,7 1,2
15-08-2020 22,2     25,3     28,3 6,1 69 81 89 1.012 1.015 1.017 SSO 3,6 33,3 0,0
14-08-2020 22,2     25,7     27,9 5,7 76 83 90 1.016 1.017 1.018 S 4,6 33,9 0,0
13-08-2020 22,5     25,7     28,2 5,7 72 81 88 1.015 1.016 1.017 S 2,4 27,3 0,0
12-08-2020 21,8     25,7     30,0 8,2 61 77 93 1.014 1.015 1.016 SO 8,8 66,6 6,4 0,43 3,20
11-08-2020 23,3     26,0     28,1 4,8 68 82 89 1.015 1.016 1.018 SSO 2,8 32,2 0,2
10-08-2020 22,8     26,4     28,7 5,9 64 79 87 1.015 1.016 1.018 SSE 1,7 31,5 0,0
09-08-2020 21,7     26,0     28,2 6,5 78 84 88 1.017 1.018 1.020 SSE 1,6 37,0 0,0
08-08-2020 22,5     26,1     28,4 5,9 68 76 84 1.019 1.021 1.022 S 3,8 37,0 0,0
07-08-2020 23,1     26,1     28,1 5,0 70 77 84 1.020 1.020 1.021 S 5,5 40,7 0,0
06-08-2020 21,9     25,5     27,5 5,6 70 81 89 1.018 1.019 1.020 S 6,4 40,7 0,0
05-08-2020 21,8     25,3     27,4 5,6 76 81 86 1.015 1.016 1.018 S 8,0 38,9 0,0
04-08-2020 22,3     25,0     28,2 5,9 51 74 86 1.016 1.017 1.017 S 6,4 42,6 0,0
03-08-2020 24,9     26,2     27,6 2,7 62 72 91 1.014 1.015 1.017 S 3,0 40,7 0,0
02-08-2020 24,2     26,9     28,6 4,4 71 85 95 1.015 1.016 1.018 SSE 5,7 40,7 0,0
01-08-2020 23,7     26,5     28,7 5,0 84 89 95 1.015 1.017 1.018 S 1,1 25,9 0,0
31-07-2020 23,9     26,8     29,7 5,8 66 86 94 1.016 1.017 1.020 SSE 0,9 35,2 0,0
30-07-2020 21,5     25,8     27,9 6,4 80 88 94 1.017 1.018 1.020 SSE 3,5 42,6 0,0
29-07-2020 22,0     25,8     27,8 5,8 72 82 93 1.017 1.018 1.020 SSE 10,5 42,6 0,0
28-07-2020 22,2     26,4     28,7 6,5 68 80 92 1.016 1.017 1.018 SSE 1,5 29,6 0,0
27-07-2020 22,3     25,7     27,7 5,4 78 84 88 1.017 1.019 1.020 S 2,8 31,5 0,0
Últims 13 mesos disponibles
07/2020 19,3 21,6 23,9 24,9 25,3 27,1 29,7 10,4 64 81 88 1.014 1.019 1.023 SSE 8,9 45,0 2,2
06/2020 14,1 18,2 21,8 21,7 19,9 24,1 27,9 13,8 46 78 89 1.006 1.017 1.024 S 12,4 68,5 25,8
05/2020 12,4 16,2 19,6 19,7 18,5 22,7 30,4 18,0 56 79 89 1.007 1.019 1.030 S 11,9 68,5 22,8
04/2020 7,9 12,3 17,7 15,1 13,7 17,9 27,6 19,7 55 83 93 1.008 1.019 1.029 S 11,6 72,4 120,6
03/2020 5,7 10,0 14,3 13,3 10,9 16,2 24,5 18,8 49 77 95 1.008 1.020 1.029 SSO 14,4 94,9 91,4
02/2020 6,1 9,7 13,6 13,4 13,4 17,0 24,4 18,3 56 78 92 1.015 1.028 1.036 SO 10,5 68,5 0,0
01/2020 3,6 7,2 12,7 10,7 10,9 14,3 18,9 15,3 67 80 94 1.020 1.028 1.035 SO 13,8 96,5 69,0
12/2019 5,4 10,1 17,2 13,3 12,7 16,9 25,3 19,9 52 75 94 1.004 1.022 1.036 SO 13,4 79,6 68,0
11/2019 6,8 12,0 19,2 15,6 13,9 19,3 27,4 20,6 45 61 82 1.000 1.013 1.020 SO 13,3 80,4 2,2
10/2019 10,3 15,7 20,0 19,3 15,3 22,7 27,4 17,1 59 76 88 1.009 1.019 1.024 ESE 13,1 68,5 14,8
09/2019 14,5 19,6 22,4 22,7 24,0 25,7 30,8 16,3 58 79 88 1.012 1.020 1.028 ESE 14,7 93,3 61,0
08/2019 17,2 21,5 24,2 24,8 25,5 27,4 30,1 12,9 62 80 89 1.013 1.018 1.023 S 11,3 93,3 16,8
07/2019 20,4 21,8 23,4 25,1 26,1 27,4 29,4 9,0 61 77 87 1.008 1.017 1.024 S 12,4 64,8 15,4
Tots els anys disponibles
2019 3,7 14,0 24,2 17,4 8,7 20,6 30,8 27,1 31 73 96 996 1.020 1.037 SSO 13,5 111,0 219,2
2018 1,3 14,3 27,1 17,6 7,7 20,7 32,4 31,1 33 74 96 995 1.018 1.038 SO 13,1 88,8 454,6
Temperatura (°C)
Humitat relativa (%)
Velocitat del vent i ràfega màxima (km/h)
Direcció del vent (°)
Pressió (hPa)
Precipitació (mm)
Nota sobre les dades: s'avisa a l'usuari de la provisionalitat i no oficialitat d'aquestes dades
Logo AVAMET blanc
Web allotjada a Sollutia
Llicència de Creative CommonsLa web d'AVAMET i els seus continguts estan subjectes a una llicència de
Reconeixement - No Comercial - Compartir igual
Últimes estacions: Castelló de la Plana - Grup Sant Agustí (Soci), Llíria - Urb. San Gerardo (Soci), Xàtiva - Ausiàs March (Soci), Gandia - Parpalló/Borrell (AVAMET), Olocau del Rei - La Magdalena (Electra/Soci), Ademuz - IES Ademuz (Soci), La Jana (Ajuntament Soci), Villahermosa del Río - la Cañada (Soci), Benassal (Ajuntament Soci), la Torre de les Maçanes - la Canaleta (Soci) - - -